Time;durP1;ratioP1;P1;durP2;ratioP2;P2;SDS_P1;SDS_P2;PMS_P1;PMS_P2;Temp;Humidity;BMP_temperature;BMP_pressure;BME280_temperature;BME280_humidity;BME280_pressure;Samples;Min_cycle;Max_cycle;Signal;HPM_P1;HPM_P2
2022/10/17 00:00:45;;;;;;;47.15;18.80;;;;;;;;;;8432635;28;20040;-88
2022/10/17 00:05:06;;;;;;;47.05;19.83;;;;;;;;;;8432275;28;20036;-87
2022/10/17 00:09:09;;;;;;;47.97;20.70;;;;;;;;;;8432196;28;20051;-87
2022/10/17 00:13:13;;;;;;;62.97;22.55;;;;;;;;;;8431828;28;20044;-86
2022/10/17 00:17:15;;;;;;;50.63;21.33;;;;;;;;;;8432152;28;20080;-86
2022/10/17 00:21:18;;;;;;;64.22;21.77;;;;;;;;;;8432132;28;20051;-87
2022/10/17 00:25:21;;;;;;;51.72;21.08;;;;;;;;;;8431722;28;20048;-86
2022/10/17 00:29:25;;;;;;;55.13;21.88;;;;;;;;;;8431390;28;20407;-88
2022/10/17 00:33:28;;;;;;;52.67;21.73;;;;;;;;;;8422581;28;20044;-85
2022/10/17 00:37:31;;;;;;;57.65;22.45;;;;;;;;;;8426247;28;20047;-88
2022/10/17 00:41:34;;;;;;;58.83;19.85;;;;;;;;;;8430114;28;20071;-86
2022/10/17 00:45:38;;;;;;;54.05;20.58;;;;;;;;;;8430942;28;20044;-86
2022/10/17 00:49:40;;;;;;;55.40;22.20;;;;;;;;;;8430778;28;20071;-87
2022/10/17 00:53:43;;;;;;;67.30;25.20;;;;;;;;;;8431129;28;20507;-87
2022/10/17 00:57:47;;;;;;;63.88;22.98;;;;;;;;;;8430600;28;20499;-86
2022/10/17 01:01:57;;;;;;;79.32;23.48;;;;;;;;;;8430325;28;20539;-86
2022/10/17 01:05:59;;;;;;;61.40;21.95;;;;;;;;;;8430814;28;20445;-87
2022/10/17 01:10:02;;;;;;;63.70;22.20;;;;;;;;;;8429985;28;20055;-85
2022/10/17 01:14:10;;;;;;;59.45;22.52;;;;;;;;;;8429873;28;20058;-86
2022/10/17 01:18:24;;;;;;;62.08;23.38;;;;;;;;;;8430033;28;20076;-88
2022/10/17 01:22:37;;;;;;;58.20;22.50;;;;;;;;;;8404033;28;20051;-88
2022/10/17 01:26:59;;;;;;;49.60;21.27;;;;;;;;;;8429705;28;20127;-87
2022/10/17 01:31:10;;;;;;;68.70;22.85;;;;;;;;;;8404668;28;20043;-86
2022/10/17 01:35:19;;;;;;;62.58;22.20;;;;;;;;;;8415241;28;20063;-86
2022/10/17 01:39:31;;;;;;;61.78;22.95;;;;;;;;;;8429341;28;20096;-86
2022/10/17 01:43:39;;;;;;;56.30;22.27;;;;;;;;;;8429671;28;20122;-86
2022/10/17 01:47:44;;;;;;;60.97;22.80;;;;;;;;;;8429341;28;20048;-85
2022/10/17 01:51:49;;;;;;;60.10;23.35;;;;;;;;;;8401685;28;20040;-85
2022/10/17 01:55:55;;;;;;;59.22;22.13;;;;;;;;;;8429166;28;20546;-86
2022/10/17 01:59:58;;;;;;;51.90;19.38;;;;;;;;;;8429001;28;20093;-85
2022/10/17 02:04:04;;;;;;;62.72;21.92;;;;;;;;;;8428963;28;20097;-85
2022/10/17 02:08:07;;;;;;;57.35;22.67;;;;;;;;;;8430049;28;20379;-85
2022/10/17 02:12:32;;;;;;;57.72;22.65;;;;;;;;;;8401394;28;20633;-85
2022/10/17 02:16:38;;;;;;;60.03;21.17;;;;;;;;;;8428795;28;20048;-87
2022/10/17 02:20:50;;;;;;;48.33;20.95;;;;;;;;;;8401522;28;20048;-86
2022/10/17 02:24:59;;;;;;;62.28;21.83;;;;;;;;;;8428801;28;20051;-86
2022/10/17 02:29:08;;;;;;;60.33;22.55;;;;;;;;;;8428680;28;20044;-87
2022/10/17 02:33:16;;;;;;;75.50;24.35;;;;;;;;;;8422082;28;20068;-85
2022/10/17 02:37:25;;;;;;;60.00;22.38;;;;;;;;;;8421765;28;20048;-86
2022/10/17 02:41:28;;;;;;;75.00;23.15;;;;;;;;;;8428350;28;20086;-86
2022/10/17 02:45:34;;;;;;;57.33;23.25;;;;;;;;;;8428344;28;20050;-86
2022/10/17 02:49:41;;;;;;;59.40;21.35;;;;;;;;;;8428041;28;20044;-86
2022/10/17 02:53:55;;;;;;;63.85;21.95;;;;;;;;;;8428259;28;20048;-87
2022/10/17 02:58:00;;;;;;;61.40;22.05;;;;;;;;;;8428276;28;20072;-86
2022/10/17 03:02:04;;;;;;;63.88;22.40;;;;;;;;;;8420552;28;20040;-86
2022/10/17 03:06:06;;;;;;;58.67;22.95;;;;;;;;;;8434198;28;20071;-87
2022/10/17 03:10:10;;;;;;;68.15;23.52;;;;;;;;;;8433965;28;20268;-86
2022/10/17 03:14:12;;;;;;;67.18;23.23;;;;;;;;;;8433797;28;20055;-87
2022/10/17 03:18:15;;;;;;;55.50;21.42;;;;;;;;;;8434305;28;20048;-86
2022/10/17 03:22:17;;;;;;;56.08;22.65;;;;;;;;;;8433627;28;20119;-86
2022/10/17 03:26:21;;;;;;;52.83;20.65;;;;;;;;;;8433620;28;20048;-85
2022/10/17 03:30:24;;;;;;;51.40;20.52;;;;;;;;;;8433738;28;20119;-86
2022/10/17 03:34:26;;;;;;;61.10;22.95;;;;;;;;;;8419201;28;20051;-86
2022/10/17 03:38:28;;;;;;;45.35;20.00;;;;;;;;;;8433773;28;20075;-86
2022/10/17 03:42:33;;;;;;;52.67;20.48;;;;;;;;;;8433149;28;20097;-85
2022/10/17 03:46:35;;;;;;;49.05;20.83;;;;;;;;;;8432818;28;20067;-84
2022/10/17 03:50:38;;;;;;;57.95;21.40;;;;;;;;;;8433113;28;20051;-86
2022/10/17 03:54:40;;;;;;;57.50;20.92;;;;;;;;;;8432595;28;20126;-87
2022/10/17 03:58:45;;;;;;;56.47;22.15;;;;;;;;;;8432575;28;20044;-85
2022/10/17 04:02:47;;;;;;;59.22;22.83;;;;;;;;;;8432395;28;20048;-85
2022/10/17 04:06:49;;;;;;;56.55;21.50;;;;;;;;;;8432168;28;20086;-85
2022/10/17 04:10:52;;;;;;;62.45;22.10;;;;;;;;;;8432598;28;20583;-85
2022/10/17 04:14:56;;;;;;;333.08;77.28;;;;;;;;;;8431747;28;20066;-86
2022/10/17 04:18:59;;;;;;;279.25;72.50;;;;;;;;;;8418080;28;20043;-87
2022/10/17 04:23:02;;;;;;;192.07;57.17;;;;;;;;;;8432351;28;20484;-86
2022/10/17 04:27:07;;;;;;;78.80;28.13;;;;;;;;;;8431412;28;20040;-86
2022/10/17 04:31:15;;;;;;;158.85;48.45;;;;;;;;;;8431833;28;20487;-86
2022/10/17 04:35:18;;;;;;;238.48;77.07;;;;;;;;;;8417603;28;20072;-87
2022/10/17 04:39:21;;;;;;;165.07;55.42;;;;;;;;;;8430962;28;20048;-85
2022/10/17 04:43:23;;;;;;;110.60;42.30;;;;;;;;;;8431071;28;20048;-87
2022/10/17 04:47:27;;;;;;;152.45;53.17;;;;;;;;;;8416749;28;20052;-85
2022/10/17 04:51:29;;;;;;;94.00;34.47;;;;;;;;;;8430659;28;20044;-86
2022/10/17 04:55:36;;;;;;;88.07;29.42;;;;;;;;;;8431037;28;20089;-87
2022/10/17 04:59:38;;;;;;;88.32;30.58;;;;;;;;;;8430747;28;20071;-87
2022/10/17 05:03:43;;;;;;;87.28;34.20;;;;;;;;;;8430594;28;20051;-86
2022/10/17 05:07:45;;;;;;;93.90;30.48;;;;;;;;;;8430220;28;20089;-86
2022/10/17 05:11:48;;;;;;;76.53;28.17;;;;;;;;;;8430076;28;20044;-86
2022/10/17 05:15:50;;;;;;;79.22;27.30;;;;;;;;;;8375715;28;20143;-86
2022/10/17 05:19:55;;;;;;;77.32;29.40;;;;;;;;;;8394325;28;20045;-84
2022/10/17 05:23:57;;;;;;;110.70;34.63;;;;;;;;;;8388498;28;20044;-86
2022/10/17 05:28:00;;;;;;;98.97;36.42;;;;;;;;;;8420180;28;20474;-85
2022/10/17 05:32:02;;;;;;;103.90;37.22;;;;;;;;;;8429570;28;20123;-86
2022/10/17 05:36:07;;;;;;;78.47;30.05;;;;;;;;;;8415359;28;20044;-87
2022/10/17 05:40:10;;;;;;;93.65;35.63;;;;;;;;;;8429530;28;20102;-87
2022/10/17 05:44:13;;;;;;;103.57;36.97;;;;;;;;;;8397576;28;20087;-87
2022/10/17 05:48:15;;;;;;;104.50;41.08;;;;;;;;;;8413210;28;20074;-86
2022/10/17 05:52:20;;;;;;;248.57;74.47;;;;;;;;;;8395284;28;20498;-86
2022/10/17 05:56:22;;;;;;;202.98;74.78;;;;;;;;;;8429047;28;20435;-86
2022/10/17 06:00:25;;;;;;;178.45;71.85;;;;;;;;;;8427370;28;20059;-85
2022/10/17 06:04:28;;;;;;;119.90;48.05;;;;;;;;;;8381637;28;20045;-86
2022/10/17 06:08:32;;;;;;;111.78;50.97;;;;;;;;;;8381704;28;20055;-87
2022/10/17 06:12:34;;;;;;;56.13;24.58;;;;;;;;;;8372442;28;20112;-86
2022/10/17 06:16:37;;;;;;;44.50;22.05;;;;;;;;;;8414738;28;20076;-85
2022/10/17 06:20:39;;;;;;;33.25;19.25;;;;;;;;;;8414564;28;20142;-86
2022/10/17 06:24:44;;;;;;;39.63;22.25;;;;;;;;;;8404799;28;20040;-88
2022/10/17 06:28:46;;;;;;;39.03;20.35;;;;;;;;;;8424167;28;20549;-88
2022/10/17 06:32:49;;;;;;;37.40;23.10;;;;;;;;;;8406719;28;20044;-87
2022/10/17 06:36:53;;;;;;;45.50;24.35;;;;;;;;;;8408905;28;20060;-87
2022/10/17 06:41:03;;;;;;;38.72;24.70;;;;;;;;;;8411957;28;20123;-87
2022/10/17 06:45:07;;;;;;;28.15;18.98;;;;;;;;;;8420361;28;20063;-88
2022/10/17 06:49:10;;;;;;;20.92;14.82;;;;;;;;;;8393608;28;20048;-87
2022/10/17 06:53:13;;;;;;;21.02;16.15;;;;;;;;;;8413522;28;20040;-88
2022/10/17 06:57:17;;;;;;;19.05;12.65;;;;;;;;;;8434152;28;20050;-87
2022/10/17 07:01:19;;;;;;;24.10;17.17;;;;;;;;;;8409773;28;20477;-87
2022/10/17 07:05:22;;;;;;;20.40;13.75;;;;;;;;;;8410446;28;20049;-89
2022/10/17 07:09:26;;;;;;;16.38;11.65;;;;;;;;;;8402036;28;20443;-88
2022/10/17 07:13:30;;;;;;;17.17;11.95;;;;;;;;;;8416413;28;20097;-88
2022/10/17 07:17:33;;;;;;;16.08;10.75;;;;;;;;;;8420236;28;20055;-88
2022/10/17 07:21:35;;;;;;;16.65;10.43;;;;;;;;;;8407676;28;20044;-89
2022/10/17 07:25:38;;;;;;;16.42;11.05;;;;;;;;;;8401134;28;20056;-88
2022/10/17 07:29:42;;;;;;;13.02;9.52;;;;;;;;;;8426505;28;20040;-90
2022/10/17 07:33:46;;;;;;;16.40;9.88;;;;;;;;;;8419832;28;20133;-91
2022/10/17 07:37:49;;;;;;;13.52;9.95;;;;;;;;;;8421000;28;20044;-89
2022/10/17 07:41:54;;;;;;;12.50;9.13;;;;;;;;;;8432796;28;20048;-89
2022/10/17 07:45:58;;;;;;;13.32;9.50;;;;;;;;;;8432681;28;20130;-90
2022/10/17 07:50:00;;;;;;;13.90;9.57;;;;;;;;;;8432192;28;20105;-90
2022/10/17 07:54:04;;;;;;;13.82;8.95;;;;;;;;;;8426925;28;20059;-90
2022/10/17 07:58:09;;;;;;;11.05;8.05;;;;;;;;;;8411198;28;20488;-90
2022/10/17 08:02:18;;;;;;;11.05;8.60;;;;;;;;;;8405363;28;20097;-88
2022/10/17 08:06:20;;;;;;;12.15;8.65;;;;;;;;;;8416735;28;20104;-89
2022/10/17 08:10:26;;;;;;;13.35;8.82;;;;;;;;;;8405650;28;20060;-88
2022/10/17 08:14:28;;;;;;;14.68;8.90;;;;;;;;;;8409671;28;20083;-90
2022/10/17 08:18:33;;;;;;;10.95;7.70;;;;;;;;;;8370640;28;20051;-89
2022/10/17 08:22:35;;;;;;;11.07;8.00;;;;;;;;;;8403614;28;20119;-89
2022/10/17 08:26:38;;;;;;;12.07;8.10;;;;;;;;;;8431361;28;20052;-90
2022/10/17 08:30:40;;;;;;;13.43;8.30;;;;;;;;;;8431050;28;20056;-89
2022/10/17 08:34:44;;;;;;;11.13;7.97;;;;;;;;;;8403320;28;20138;-86
2022/10/17 08:38:47;;;;;;;11.90;7.90;;;;;;;;;;8384397;28;20056;-88
2022/10/17 08:43:02;;;;;;;14.73;8.25;;;;;;;;;;8429341;28;20047;-88
2022/10/17 08:47:10;;;;;;;12.63;8.27;;;;;;;;;;8395737;28;20051;-88
2022/10/17 08:51:17;;;;;;;12.77;7.63;;;;;;;;;;8401876;28;20451;-88
2022/10/17 08:55:28;;;;;;;13.20;8.73;;;;;;;;;;8400409;28;20036;-88
2022/10/17 08:59:32;;;;;;;11.25;8.00;;;;;;;;;;8430290;28;20040;-89
2022/10/17 09:03:48;;;;;;;13.10;8.32;;;;;;;;;;8397584;28;20132;-86
2022/10/17 09:08:00;;;;;;;14.40;7.95;;;;;;;;;;8413355;28;20067;-85
2022/10/17 09:12:15;;;;;;;10.65;8.00;;;;;;;;;;8389258;28;20412;-89
2022/10/17 09:16:36;;;;;;;12.32;8.50;;;;;;;;;;8424548;28;20163;-90
2022/10/17 09:20:44;;;;;;;13.90;8.48;;;;;;;;;;8428904;28;20036;-87
2022/10/17 09:24:54;;;;;;;10.90;7.80;;;;;;;;;;8429674;28;20044;-87
2022/10/17 09:28:59;;;;;;;11.93;8.05;;;;;;;;;;8404954;28;20048;-87
2022/10/17 09:33:09;;;;;;;15.93;7.97;;;;;;;;;;8378713;28;20596;-88
2022/10/17 09:37:14;;;;;;;13.02;7.57;;;;;;;;;;8394240;28;20047;-87
2022/10/17 09:41:21;;;;;;;11.95;8.10;;;;;;;;;;8426371;28;20130;-87
2022/10/17 09:45:25;;;;;;;11.90;8.25;;;;;;;;;;8427150;28;20044;-87
2022/10/17 09:49:33;;;;;;;11.05;7.68;;;;;;;;;;8428487;28;20044;-87
2022/10/17 09:53:37;;;;;;;12.88;7.30;;;;;;;;;;8429118;28;20122;-89
2022/10/17 09:57:55;;;;;;;10.02;7.65;;;;;;;;;;8429642;28;20499;-90
2022/10/17 10:02:08;;;;;;;11.13;7.82;;;;;;;;;;8429057;28;20124;-88
2022/10/17 10:06:15;;;;;;;10.07;7.97;;;;;;;;;;8428945;28;20043;-87
2022/10/17 10:10:25;;;;;;;13.40;8.27;;;;;;;;;;8429030;28;20377;-87
2022/10/17 10:14:32;;;;;;;11.38;8.20;;;;;;;;;;8438520;28;20048;-87
2022/10/17 10:18:36;;;;;;;17.35;8.95;;;;;;;;;;8439861;28;20093;-88
2022/10/17 10:22:38;;;;;;;11.60;7.70;;;;;;;;;;8439916;28;20534;-86
2022/10/17 10:26:44;;;;;;;12.23;7.97;;;;;;;;;;8440027;28;20078;-86
2022/10/17 10:30:52;;;;;;;12.30;7.97;;;;;;;;;;8439701;28;20040;-85
2022/10/17 10:34:57;;;;;;;11.40;8.05;;;;;;;;;;8425574;28;20039;-85
2022/10/17 10:39:00;;;;;;;13.35;7.88;;;;;;;;;;8439754;28;20040;-86
2022/10/17 10:43:03;;;;;;;11.75;8.23;;;;;;;;;;8439431;28;20127;-85
2022/10/17 10:47:17;;;;;;;10.60;8.00;;;;;;;;;;8439745;28;20043;-87
2022/10/17 10:51:25;;;;;;;11.35;8.10;;;;;;;;;;8439462;28;20068;-86
2022/10/17 10:55:32;;;;;;;10.18;6.97;;;;;;;;;;8439810;28;20102;-86
2022/10/17 10:59:39;;;;;;;12.63;8.65;;;;;;;;;;8439600;28;20476;-87
2022/10/17 11:03:58;;;;;;;13.75;8.48;;;;;;;;;;8439376;28;20043;-87
2022/10/17 11:08:06;;;;;;;12.98;8.07;;;;;;;;;;8439198;28;20054;-86
2022/10/17 11:12:17;;;;;;;13.60;8.73;;;;;;;;;;8425270;28;20040;-86
2022/10/17 11:16:27;;;;;;;17.15;10.18;;;;;;;;;;8438923;28;20071;-86
2022/10/17 11:20:38;;;;;;;15.82;9.15;;;;;;;;;;8439404;28;20048;-86
2022/10/17 11:24:44;;;;;;;24.58;10.07;;;;;;;;;;8435323;28;20054;-88
2022/10/17 11:28:47;;;;;;;14.18;8.75;;;;;;;;;;8419288;28;20043;-88
2022/10/17 11:32:53;;;;;;;13.55;8.65;;;;;;;;;;8430033;28;20070;-89
2022/10/17 11:37:02;;;;;;;15.93;10.00;;;;;;;;;;8423518;28;20106;-88
2022/10/17 11:41:07;;;;;;;22.00;12.55;;;;;;;;;;8433194;28;20093;-87
2022/10/17 11:45:15;;;;;;;17.60;8.57;;;;;;;;;;8433097;28;20407;-87
2022/10/17 11:49:23;;;;;;;14.13;8.07;;;;;;;;;;8418826;28;20044;-87
2022/10/17 11:53:34;;;;;;;14.07;7.50;;;;;;;;;;8432960;28;20048;-86
2022/10/17 11:57:49;;;;;;;13.98;7.43;;;;;;;;;;8433166;28;20040;-87
2022/10/17 12:01:57;;;;;;;12.15;8.55;;;;;;;;;;8432500;28;20040;-88
2022/10/17 12:06:08;;;;;;;20.55;10.65;;;;;;;;;;8389693;28;20132;-86
2022/10/17 12:10:20;;;;;;;;;;;;;;;;;;8381620;28;20492;-88
2022/10/17 12:14:35;;;;;;;;;;;;;;;;;;8390399;28;19950;-87
2022/10/17 12:18:37;;;;;;;14.02;8.63;;;;;;;;;;8427204;28;20283;-87
2022/10/17 12:22:47;;;;;;;14.20;8.55;;;;;;;;;;8429413;28;20048;-85
2022/10/17 12:26:51;;;;;;;13.52;8.50;;;;;;;;;;8413676;28;20040;-86
2022/10/17 12:30:59;;;;;;;22.08;14.27;;;;;;;;;;8412062;28;20466;-88
2022/10/17 12:35:03;;;;;;;19.73;10.50;;;;;;;;;;8402506;28;20053;-87
2022/10/17 12:39:54;;;;;;;23.27;12.50;;;;;;;;;;8406286;28;20040;-86
2022/10/17 12:43:58;;;;;;;26.40;13.90;;;;;;;;;;8406537;28;20145;-86
2022/10/17 12:48:00;;;;;;;48.55;23.52;;;;;;;;;;8392951;28;20048;-88
2022/10/17 12:52:35;;;;;;;15.20;9.38;;;;;;;;;;8410996;28;20716;-88
2022/10/17 12:56:40;;;;;;;17.85;10.75;;;;;;;;;;8426426;28;20609;-88
2022/10/17 13:00:49;;;;;;;37.88;19.00;;;;;;;;;;8420973;28;20114;-86
2022/10/17 13:05:06;;;;;;;19.77;10.85;;;;;;;;;;8402811;28;20101;-86
2022/10/17 13:09:20;;;;;;;27.17;12.68;;;;;;;;;;8414743;28;20047;-88
2022/10/17 13:13:27;;;;;;;18.90;11.23;;;;;;;;;;8402183;28;20044;-85
2022/10/17 13:17:31;;;;;;;45.17;23.63;;;;;;;;;;8415260;28;20448;-88
2022/10/17 13:21:34;;;;;;;96.10;45.25;;;;;;;;;;8410144;28;20521;-88
2022/10/17 13:25:37;;;;;;;19.58;10.63;;;;;;;;;;8395869;28;20060;-87
2022/10/17 13:29:44;;;;;;;20.00;11.50;;;;;;;;;;8409857;28;20075;-86
2022/10/17 13:33:48;;;;;;;34.03;19.02;;;;;;;;;;8407195;28;20056;-88
2022/10/17 13:37:51;;;;;;;35.53;20.27;;;;;;;;;;8412321;28;20095;-87
2022/10/17 13:41:55;;;;;;;34.20;18.75;;;;;;;;;;8412633;28;20603;-87
2022/10/17 13:46:02;;;;;;;15.13;9.68;;;;;;;;;;8393063;28;20496;-88
2022/10/17 13:50:08;;;;;;;25.08;14.82;;;;;;;;;;8394989;28;20114;-88
2022/10/17 13:54:19;;;;;;;22.50;12.82;;;;;;;;;;8404107;28;20090;-87
2022/10/17 13:58:21;;;;;;;51.33;32.03;;;;;;;;;;8409373;28;20052;-88
2022/10/17 14:02:26;;;;;;;16.73;10.77;;;;;;;;;;8409369;28;20439;-88
2022/10/17 14:06:31;;;;;;;15.05;8.85;;;;;;;;;;8401576;28;20049;-87
2022/10/17 14:10:36;;;;;;;14.88;8.90;;;;;;;;;;8412375;28;20071;-87
2022/10/17 14:14:41;;;;;;;13.35;9.65;;;;;;;;;;8408954;28;20059;-87
2022/10/17 14:18:48;;;;;;;13.85;9.32;;;;;;;;;;8396201;28;20476;-89
2022/10/17 14:22:52;;;;;;;14.02;10.00;;;;;;;;;;8397990;28;20051;-89
2022/10/17 14:26:57;;;;;;;14.00;8.10;;;;;;;;;;8410552;28;20071;-88
2022/10/17 14:31:13;;;;;;;14.45;8.57;;;;;;;;;;8406996;28;20524;-88
2022/10/17 14:35:17;;;;;;;16.58;8.40;;;;;;;;;;8403755;28;20048;-87
2022/10/17 14:39:23;;;;;;;13.07;8.60;;;;;;;;;;8404355;28;20476;-88
2022/10/17 14:43:28;;;;;;;13.82;8.65;;;;;;;;;;8407106;28;20048;-88
2022/10/17 14:47:31;;;;;;;11.57;8.45;;;;;;;;;;8398605;28;20466;-87
2022/10/17 14:51:33;;;;;;;15.13;9.98;;;;;;;;;;8419014;28;20040;-86
2022/10/17 14:55:39;;;;;;;15.73;8.70;;;;;;;;;;8416941;28;20044;-87
2022/10/17 14:59:57;;;;;;;17.38;10.43;;;;;;;;;;8405437;28;20044;-87
2022/10/17 15:04:02;;;;;;;16.02;9.30;;;;;;;;;;8420310;28;20044;-87
2022/10/17 15:08:13;;;;;;;16.75;9.57;;;;;;;;;;8416572;28;20067;-87
2022/10/17 15:12:35;;;;;;;17.30;9.98;;;;;;;;;;8419865;28;20735;-87
2022/10/17 15:16:42;;;;;;;17.77;10.45;;;;;;;;;;8411550;28;20063;-88
2022/10/17 15:20:54;;;;;;;16.20;9.60;;;;;;;;;;8411785;28;20526;-88
2022/10/17 15:25:08;;;;;;;20.55;10.25;;;;;;;;;;8414527;28;20402;-87
2022/10/17 15:29:17;;;;;;;13.77;9.55;;;;;;;;;;8414447;28;20134;-88
2022/10/17 15:33:28;;;;;;;18.77;9.77;;;;;;;;;;8420896;28;20048;-87
2022/10/17 15:37:45;;;;;;;17.67;10.32;;;;;;;;;;8397433;28;20477;-89
2022/10/17 15:41:58;;;;;;;21.95;12.75;;;;;;;;;;8412057;28;20044;-87
2022/10/17 15:46:10;;;;;;;22.50;14.73;;;;;;;;;;8428386;28;20051;-88
2022/10/17 15:50:17;;;;;;;19.95;13.50;;;;;;;;;;8418237;28;20052;-88
2022/10/17 15:54:26;;;;;;;21.13;12.57;;;;;;;;;;8417556;28;20407;-89
2022/10/17 15:58:42;;;;;;;19.65;12.15;;;;;;;;;;8413209;28;20044;-88
2022/10/17 16:02:53;;;;;;;22.75;13.50;;;;;;;;;;8427940;28;20058;-88
2022/10/17 16:07:21;;;;;;;23.67;14.30;;;;;;;;;;8422871;28;20078;-87
2022/10/17 16:11:35;;;;;;;21.83;14.68;;;;;;;;;;8395982;28;20062;-88
2022/10/17 16:20:09;;;;;;;29.17;13.38;;;;;;;;;;8420385;28;20433;-88
2022/10/17 16:24:18;;;;;;;29.92;21.48;;;;;;;;;;8358131;22;20049;-88
2022/10/17 16:28:37;;;;;;;23.33;13.18;;;;;;;;;;8346519;28;20041;-88
2022/10/17 16:32:47;;;;;;;27.70;14.50;;;;;;;;;;8329465;28;20041;-87
2022/10/17 16:36:54;;;;;;;27.05;14.25;;;;;;;;;;8341682;28;20041;-88
2022/10/17 16:41:04;;;;;;;29.00;14.38;;;;;;;;;;8346630;28;20468;-87
2022/10/17 16:45:13;;;;;;;26.85;15.00;;;;;;;;;;8349970;28;20049;-88
2022/10/17 16:49:26;;;;;;;29.02;13.82;;;;;;;;;;8328446;28;20497;-87
2022/10/17 16:53:30;;;;;;;29.33;15.40;;;;;;;;;;8339829;28;20567;-88
2022/10/17 16:57:33;;;;;;;26.05;14.68;;;;;;;;;;8358967;28;20472;-87
2022/10/17 17:01:36;;;;;;;27.17;14.27;;;;;;;;;;8346930;28;20049;-88
2022/10/17 17:05:39;;;;;;;30.70;15.95;;;;;;;;;;8347482;28;20131;-87
2022/10/17 17:09:43;;;;;;;30.40;15.60;;;;;;;;;;8344111;28;20048;-87
2022/10/17 17:13:46;;;;;;;28.00;15.63;;;;;;;;;;8357133;28;20401;-87
2022/10/17 17:17:49;;;;;;;31.08;16.95;;;;;;;;;;8347930;28;20057;-88
2022/10/17 17:21:51;;;;;;;40.28;18.27;;;;;;;;;;8336561;28;20068;-87
2022/10/17 17:26:00;;;;;;;32.35;17.55;;;;;;;;;;8352134;28;20069;-88
2022/10/17 17:30:03;;;;;;;37.75;21.27;;;;;;;;;;8348526;28;20052;-87
2022/10/17 17:34:05;;;;;;;36.65;17.80;;;;;;;;;;8333802;28;20128;-86
2022/10/17 17:38:09;;;;;;;32.45;19.27;;;;;;;;;;8332519;28;20187;-87
2022/10/17 17:42:13;;;;;;;51.10;23.27;;;;;;;;;;8316837;28;20137;-88
2022/10/17 17:46:17;;;;;;;37.28;21.60;;;;;;;;;;8332291;28;20056;-88
2022/10/17 17:50:20;;;;;;;31.63;17.92;;;;;;;;;;8352761;28;20060;-88
2022/10/17 17:54:23;;;;;;;30.98;17.50;;;;;;;;;;8345053;28;20128;-87
2022/10/17 17:58:28;;;;;;;31.05;17.10;;;;;;;;;;8354850;28;20056;-87
2022/10/17 18:02:30;;;;;;;42.08;25.15;;;;;;;;;;8359175;28;20044;-87
2022/10/17 18:06:33;;;;;;;53.03;29.77;;;;;;;;;;8344165;28;20550;-88
2022/10/17 18:10:36;;;;;;;32.83;18.17;;;;;;;;;;8329652;28;20481;-88
2022/10/17 18:14:40;;;;;;;81.18;34.22;;;;;;;;;;8354015;28;20040;-87
2022/10/17 18:18:45;;;;;;;66.50;32.00;;;;;;;;;;8362341;28;20527;-88
2022/10/17 18:22:48;;;;;;;41.35;23.48;;;;;;;;;;8361692;28;20060;-88
2022/10/17 18:26:54;;;;;;;27.98;18.25;;;;;;;;;;8351382;28;20444;-88
2022/10/17 18:31:06;;;;;;;67.53;33.13;;;;;;;;;;8330479;28;20033;-88
2022/10/17 18:35:10;;;;;;;38.30;20.92;;;;;;;;;;8335555;28;20073;-88
2022/10/17 18:39:13;;;;;;;47.50;26.13;;;;;;;;;;8334024;28;20172;-87
2022/10/17 18:43:16;;;;;;;30.38;17.75;;;;;;;;;;8335164;28;20037;-86
2022/10/17 18:47:23;;;;;;;30.75;18.58;;;;;;;;;;8334109;28;20049;-86
2022/10/17 18:51:27;;;;;;;54.47;27.83;;;;;;;;;;8340923;28;20053;-86
2022/10/17 18:55:30;;;;;;;37.15;19.20;;;;;;;;;;8333633;28;20122;-87
2022/10/17 18:59:34;;;;;;;30.48;16.92;;;;;;;;;;8340412;28;20045;-86
2022/10/17 19:03:38;;;;;;;30.35;16.67;;;;;;;;;;8360484;28;20049;-87
2022/10/17 19:07:41;;;;;;;33.63;18.85;;;;;;;;;;8337876;28;20481;-88
2022/10/17 19:11:43;;;;;;;37.53;19.40;;;;;;;;;;8341420;28;20099;-87
2022/10/17 19:15:49;;;;;;;40.60;18.50;;;;;;;;;;8356616;28;20060;-88
2022/10/17 19:19:54;;;;;;;33.75;17.73;;;;;;;;;;8355788;28;20060;-87
2022/10/17 19:23:59;;;;;;;33.95;18.17;;;;;;;;;;8363567;28;20123;-86
2022/10/17 19:28:01;;;;;;;36.05;18.95;;;;;;;;;;8364827;28;20045;-87
2022/10/17 19:32:08;;;;;;;36.80;18.75;;;;;;;;;;8365604;28;20037;-86
2022/10/17 19:36:13;;;;;;;33.15;18.40;;;;;;;;;;8366571;28;20076;-87
2022/10/17 19:40:15;;;;;;;42.22;19.27;;;;;;;;;;8366095;28;20412;-87
2022/10/17 19:44:18;;;;;;;34.55;18.70;;;;;;;;;;8366250;28;20045;-87
2022/10/17 19:48:21;;;;;;;49.03;23.10;;;;;;;;;;8366708;28;20943;-87
2022/10/17 19:52:25;;;;;;;58.83;27.77;;;;;;;;;;8366292;28;20400;-87
2022/10/17 19:56:29;;;;;;;45.42;21.70;;;;;;;;;;8366175;28;20049;-87
2022/10/17 20:00:31;;;;;;;41.83;21.70;;;;;;;;;;8366165;28;20045;-87
2022/10/17 20:04:34;;;;;;;34.50;18.58;;;;;;;;;;8365987;28;20071;-87
2022/10/17 20:08:39;;;;;;;34.90;17.15;;;;;;;;;;8365822;28;20041;-87
2022/10/17 20:12:42;;;;;;;28.13;16.10;;;;;;;;;;8365730;28;20063;-88
2022/10/17 20:16:48;;;;;;;27.42;16.45;;;;;;;;;;8365625;28;20451;-87
2022/10/17 20:20:51;;;;;;;27.13;16.20;;;;;;;;;;8365569;28;20048;-85
2022/10/17 20:24:55;;;;;;;33.13;17.88;;;;;;;;;;8365491;28;20052;-86
2022/10/17 20:28:57;;;;;;;39.63;19.35;;;;;;;;;;8365236;28;20048;-86
2022/10/17 20:33:00;;;;;;;32.90;18.48;;;;;;;;;;8365508;28;20045;-87
2022/10/17 20:37:03;;;;;;;38.92;19.85;;;;;;;;;;8365130;28;20530;-86
2022/10/17 20:41:09;;;;;;;34.55;20.20;;;;;;;;;;8364938;28;20060;-86
2022/10/17 20:45:12;;;;;;;37.97;19.40;;;;;;;;;;8364814;28;20048;-87
2022/10/17 20:49:16;;;;;;;44.25;21.38;;;;;;;;;;8364655;28;20175;-87
2022/10/17 20:53:19;;;;;;;35.30;18.55;;;;;;;;;;8364777;28;20560;-87
2022/10/17 20:57:23;;;;;;;41.33;20.08;;;;;;;;;;8363472;28;20132;-87
2022/10/17 21:01:26;;;;;;;33.70;17.95;;;;;;;;;;8364082;28;20493;-86
2022/10/17 21:05:29;;;;;;;39.40;21.05;;;;;;;;;;8364573;28;20049;-87
2022/10/17 21:09:32;;;;;;;36.70;20.40;;;;;;;;;;8364019;28;20049;-86
2022/10/17 21:13:36;;;;;;;45.40;21.17;;;;;;;;;;8363780;28;20056;-86
2022/10/17 21:17:38;;;;;;;38.08;19.85;;;;;;;;;;8363746;28;20510;-85
2022/10/17 21:21:42;;;;;;;39.40;19.48;;;;;;;;;;8363667;28;20489;-87
2022/10/17 21:25:45;;;;;;;37.53;19.83;;;;;;;;;;8363560;28;20127;-87
2022/10/17 21:29:49;;;;;;;34.88;19.13;;;;;;;;;;8363587;28;20480;-88
2022/10/17 21:33:53;;;;;;;45.92;22.08;;;;;;;;;;8363177;28;20135;-86
2022/10/17 21:37:55;;;;;;;38.00;19.27;;;;;;;;;;8363235;28;20477;-87
2022/10/17 21:41:58;;;;;;;37.13;17.92;;;;;;;;;;8363228;28;20056;-86
2022/10/17 21:46:06;;;;;;;38.15;18.40;;;;;;;;;;8363027;28;20052;-86
2022/10/17 21:50:09;;;;;;;34.53;17.63;;;;;;;;;;8350134;28;20041;-86
2022/10/17 21:54:12;;;;;;;39.85;18.40;;;;;;;;;;8362691;28;20075;-86
2022/10/17 21:58:14;;;;;;;53.88;22.55;;;;;;;;;;8362723;28;20048;-87
2022/10/17 22:02:18;;;;;;;65.55;25.38;;;;;;;;;;8362831;28;20048;-87
2022/10/17 22:06:22;;;;;;;55.50;23.77;;;;;;;;;;8362458;28;20488;-86
2022/10/17 22:10:25;;;;;;;50.72;22.08;;;;;;;;;;8362198;28;20056;-87
2022/10/17 22:14:28;;;;;;;51.67;22.33;;;;;;;;;;8362299;28;20045;-86
2022/10/17 22:18:32;;;;;;;57.20;23.42;;;;;;;;;;8362226;28;20077;-86
2022/10/17 22:22:34;;;;;;;48.53;21.83;;;;;;;;;;8362330;28;20413;-87
2022/10/17 22:26:38;;;;;;;45.10;20.52;;;;;;;;;;8362178;28;20049;-87
2022/10/17 22:30:40;;;;;;;51.97;21.83;;;;;;;;;;8362171;28;20052;-85
2022/10/17 22:34:44;;;;;;;37.28;19.75;;;;;;;;;;8361888;28;20047;-87
2022/10/17 22:38:46;;;;;;;36.72;18.60;;;;;;;;;;8362351;28;20045;-85
2022/10/17 22:42:49;;;;;;;38.00;19.60;;;;;;;;;;8361978;28;20072;-86
2022/10/17 22:46:51;;;;;;;38.70;20.73;;;;;;;;;;8361889;28;20072;-86
2022/10/17 22:50:56;;;;;;;37.47;20.40;;;;;;;;;;8361765;28;20397;-86
2022/10/17 22:54:59;;;;;;;36.55;19.58;;;;;;;;;;8361792;28;20067;-85
2022/10/17 22:59:01;;;;;;;41.45;21.05;;;;;;;;;;8361631;28;20053;-85
2022/10/17 23:03:03;;;;;;;37.15;17.63;;;;;;;;;;8361519;28;20048;-86
2022/10/17 23:07:11;;;;;;;33.15;17.92;;;;;;;;;;8361868;28;20076;-86
2022/10/17 23:11:13;;;;;;;30.33;16.25;;;;;;;;;;8344326;28;20060;-85
2022/10/17 23:15:16;;;;;;;27.08;16.02;;;;;;;;;;8361822;28;20063;-87
2022/10/17 23:19:19;;;;;;;31.35;16.67;;;;;;;;;;8344454;28;20064;-86
2022/10/17 23:23:23;;;;;;;31.60;17.23;;;;;;;;;;8367227;28;20438;-85
2022/10/17 23:27:25;;;;;;;40.25;18.58;;;;;;;;;;8362329;28;20072;-86
2022/10/17 23:31:28;;;;;;;36.10;17.77;;;;;;;;;;8358434;28;20044;-86
2022/10/17 23:35:31;;;;;;;32.53;17.10;;;;;;;;;;8367422;28;20045;-86
2022/10/17 23:39:35;;;;;;;35.78;17.85;;;;;;;;;;8366726;28;20408;-87
2022/10/17 23:43:37;;;;;;;28.85;16.73;;;;;;;;;;8366819;28;20404;-87
2022/10/17 23:47:40;;;;;;;32.22;16.73;;;;;;;;;;8366655;28;20136;-86
2022/10/17 23:51:42;;;;;;;31.33;16.45;;;;;;;;;;8366250;28;20041;-85
2022/10/17 23:55:46;;;;;;;33.33;17.17;;;;;;;;;;8366957;28;20531;-86
2022/10/17 23:59:48;;;;;;;25.38;15.07;;;;;;;;;;8366412;28;20120;-85
